Terminal Aerodrome Forecast
Issued by NWS Cleveland, OH

Home | Current Version | Previous Version | Graphics & Text | Print | Product List | Glossary On
Versions: 1 2 3 4 5 6 7 8 9 10 11 12 13 14 15 16 17 18 19 20 21 22 23 24 25 26 27 28 29 30
873
FTUS41 KCLE 282025 AAG
TAFCLE
TAF AMD
KCLE 282025Z 2820/2924 18012KT P6SM VCTS BKN025CB OVC040
      TEMPO 2821/2901 VRB20G35KT 2SM TSRA OVC015CB
     FM290400 23008KT P6SM BKN035 OVC080
     FM290700 25010KT P6SM SCT035 BKN080
     FM291600 25012KT P6SM SCT040=

USA.gov is the U.S. government's official web portal to all federal, state and local government web resources and services.